Kilcolgan, Ireland
Current Conditions -  °F | °C
As of 2:30 AM on Tuesday 21 Oct 2014 (Local Time) from EINN Reporting Station
Broken Clouds Broken Clouds  
Wind Chill: 10°   Ceiling: 5000
Heat Index: 10°   Visibility: 6mi
Dew Point:   Wind: 24mph
Humidity: 82%   Direction: 280°W
Pressure: 29.62"   Gusts: NA
Location:  53.2°N, 8.87°W
Report Text: EINN 210230Z 28021KT 9999 FEW024 BKN050 BKN070 10/07 Q1003 BECMG 30027G38KT
Loading
Personal Weather Stations






























Interactive Weather Map
Tropical Storm Tracking
New forecast layout! Learn more

10-Day Weather Forecast

Advertisements
Track Severe Weather on mobile